Time;durP1;ratioP1;P1;durP2;ratioP2;P2;SDS_P1;SDS_P2;PMS_P1;PMS_P2;Temp;Humidity;BMP_temperature;BMP_pressure;BME280_temperature;BME280_humidity;BME280_pressure;Samples;Min_cycle;Max_cycle;Signal;HPM_P1;HPM_P2
2022/02/17 00:00:06;;;;;;;0.30;0.30;;;11.20;99.90;;;;;;5110669;28;20020;-68
2022/02/17 00:02:32;;;;;;;0.20;0.20;;;11.20;99.90;;;;;;5109648;28;20015;-68
2022/02/17 00:05:00;;;;;;;0.20;0.20;;;11.20;99.90;;;;;;5110687;28;20055;-68
2022/02/17 00:07:25;;;;;;;0.68;0.20;;;11.30;99.90;;;;;;5108955;28;20023;-68
2022/02/17 00:09:51;;;;;;;0.20;0.20;;;11.30;99.90;;;;;;5101678;28;20020;-68
2022/02/17 00:12:16;;;;;;;0.47;0.30;;;11.30;99.90;;;;;;5107173;28;20031;-67
2022/02/17 00:14:42;;;;;;;0.17;0.17;;;11.30;99.90;;;;;;5110476;28;20028;-68
2022/02/17 00:17:07;;;;;;;0.20;0.20;;;11.30;99.90;;;;;;5090250;28;20031;-68
2022/02/17 00:19:33;;;;;;;0.20;0.20;;;11.40;99.90;;;;;;5103572;28;20055;-68
2022/02/17 00:21:59;;;;;;;0.20;0.20;;;11.40;99.90;;;;;;5082536;28;20028;-68
2022/02/17 00:24:24;;;;;;;0.20;0.20;;;11.40;99.90;;;;;;5095896;28;20089;-68
2022/02/17 00:26:50;;;;;;;0.25;0.20;;;11.40;99.90;;;;;;5116288;27;20495;-68
2022/02/17 00:29:15;;;;;;;1.42;0.22;;;11.40;99.90;;;;;;5111263;28;20027;-67
2022/02/17 00:31:41;;;;;;;0.20;0.20;;;11.40;99.90;;;;;;5109393;28;20039;-68
2022/02/17 00:34:08;;;;;;;0.20;0.20;;;11.50;99.90;;;;;;5107908;28;20060;-67
2022/02/17 00:36:34;;;;;;;0.20;0.20;;;11.50;99.90;;;;;;5105599;28;20011;-68
2022/02/17 00:39:00;;;;;;;0.30;0.20;;;11.50;99.90;;;;;;5090910;28;20064;-67
2022/02/17 00:41:26;;;;;;;0.20;0.20;;;11.50;99.90;;;;;;5109263;28;20024;-68
2022/02/17 00:43:51;;;;;;;0.20;0.20;;;11.50;99.90;;;;;;5109604;28;20019;-67
2022/02/17 00:46:17;;;;;;;0.22;0.22;;;11.50;99.90;;;;;;5109549;28;20023;-68
2022/02/17 00:48:43;;;;;;;0.30;0.30;;;11.50;99.90;;;;;;5091191;28;20016;-68
2022/02/17 00:51:08;;;;;;;0.80;0.20;;;11.50;99.90;;;;;;5109555;28;20055;-68
2022/02/17 00:53:34;;;;;;;0.30;0.22;;;11.50;99.90;;;;;;5090938;28;20026;-68
2022/02/17 00:55:59;;;;;;;0.43;0.20;;;11.50;99.90;;;;;;5084936;28;20024;-67
2022/02/17 00:58:25;;;;;;;0.30;0.30;;;11.50;99.90;;;;;;5099189;28;20310;-67
2022/02/17 01:00:51;;;;;;;0.30;0.20;;;11.50;99.90;;;;;;5072374;28;20028;-68
2022/02/17 01:03:16;;;;;;;0.45;0.30;;;11.50;99.90;;;;;;5070982;28;20020;-67
2022/02/17 01:05:42;;;;;;;0.20;0.20;;;11.50;99.90;;;;;;5106024;28;20028;-68
2022/02/17 01:08:08;;;;;;;0.20;0.20;;;11.50;99.90;;;;;;5107822;28;20027;-68
2022/02/17 01:10:34;;;;;;;0.20;0.20;;;11.50;99.90;;;;;;5100129;28;20506;-67
2022/02/17 01:13:00;;;;;;;0.20;0.20;;;11.50;99.90;;;;;;5109025;28;20023;-67
2022/02/17 01:15:25;;;;;;;0.20;0.20;;;11.50;99.90;;;;;;5091149;28;20024;-67
2022/02/17 01:17:51;;;;;;;0.15;0.15;;;11.60;99.90;;;;;;5107977;28;20019;-68
2022/02/17 01:20:16;;;;;;;0.20;0.20;;;11.60;99.90;;;;;;5109882;28;20020;-67
2022/02/17 01:22:45;;;;;;;0.68;0.20;;;11.60;99.90;;;;;;5106195;28;20154;-68
2022/02/17 01:25:12;;;;;;;0.20;0.20;;;11.60;99.90;;;;;;5084430;28;20023;-67
2022/02/17 01:27:38;;;;;;;0.20;0.20;;;11.60;99.90;;;;;;5117357;27;20066;-68
2022/02/17 01:30:05;;;;;;;0.20;0.20;;;11.60;99.90;;;;;;5109531;28;20083;-67
2022/02/17 01:32:31;;;;;;;0.98;0.20;;;11.70;99.90;;;;;;5109421;28;20035;-68
2022/02/17 01:34:57;;;;;;;0.20;0.20;;;11.70;99.90;;;;;;5109975;28;20043;-68
2022/02/17 01:37:23;;;;;;;0.20;0.20;;;11.70;99.90;;;;;;5108951;28;20024;-68
2022/02/17 01:39:49;;;;;;;0.20;0.20;;;11.70;99.90;;;;;;5112707;28;20134;-68
2022/02/17 01:42:15;;;;;;;0.20;0.20;;;11.70;99.90;;;;;;5113010;28;20047;-68
2022/02/17 01:44:40;;;;;;;0.10;0.10;;;11.70;99.90;;;;;;5112238;28;20031;-68
2022/02/17 01:47:11;;;;;;;0.15;0.15;;;11.70;99.90;;;;;;5109019;28;20035;-68
2022/02/17 01:49:36;;;;;;;0.20;0.20;;;11.70;99.90;;;;;;5092622;28;20025;-67
2022/02/17 01:52:03;;;;;;;0.10;0.10;;;11.70;99.90;;;;;;5093395;28;20031;-68
2022/02/17 01:54:30;;;;;;;0.20;0.20;;;11.60;99.90;;;;;;5078798;28;20509;-68
2022/02/17 01:56:56;;;;;;;0.13;0.13;;;11.60;99.90;;;;;;5109584;28;20023;-68
2022/02/17 01:59:22;;;;;;;0.10;0.10;;;11.60;99.90;;;;;;5112011;28;20020;-68
2022/02/17 02:01:48;;;;;;;1.13;0.20;;;11.60;99.90;;;;;;5100080;28;20024;-68
2022/02/17 02:04:13;;;;;;;0.13;0.13;;;11.60;99.90;;;;;;5112489;28;20062;-68
2022/02/17 02:06:39;;;;;;;0.17;0.17;;;11.50;99.90;;;;;;5111751;28;20039;-67
2022/02/17 02:09:06;;;;;;;0.25;0.25;;;11.50;99.90;;;;;;5109224;28;20035;-68
2022/02/17 02:11:31;;;;;;;0.30;0.30;;;11.50;99.90;;;;;;5111761;28;20031;-68
2022/02/17 02:13:57;;;;;;;0.63;0.20;;;11.50;99.90;;;;;;5111566;28;20344;-67
2022/02/17 02:16:23;;;;;;;0.20;0.20;;;11.50;99.90;;;;;;5112111;28;20102;-67
2022/02/17 02:18:48;;;;;;;0.20;0.20;;;11.50;99.90;;;;;;5111340;28;20020;-68
2022/02/17 02:21:14;;;;;;;0.20;0.20;;;11.40;99.90;;;;;;5112323;28;20024;-68
2022/02/17 02:23:40;;;;;;;0.20;0.20;;;11.40;99.90;;;;;;5104005;27;20065;-67
2022/02/17 02:26:06;;;;;;;0.30;0.30;;;11.40;99.90;;;;;;5095255;27;20099;-68
2022/02/17 02:28:33;;;;;;;0.20;0.20;;;11.40;99.90;;;;;;5114930;27;20031;-67
2022/02/17 02:30:59;;;;;;;0.20;0.20;;;11.30;99.90;;;;;;5093425;28;20118;-67
2022/02/17 02:33:26;;;;;;;0.20;0.20;;;11.30;99.90;;;;;;5105343;28;20115;-67
2022/02/17 02:35:54;;;;;;;0.20;0.20;;;11.30;99.90;;;;;;5093981;28;20020;-67
2022/02/17 02:38:20;;;;;;;0.20;0.20;;;11.30;99.90;;;;;;5109490;28;20038;-67
2022/02/17 02:40:46;;;;;;;0.25;0.20;;;11.30;99.90;;;;;;5110983;28;20023;-67
2022/02/17 02:43:12;;;;;;;0.20;0.20;;;11.20;99.90;;;;;;5112174;28;20429;-68
2022/02/17 02:45:37;;;;;;;0.40;0.40;;;11.30;99.90;;;;;;5109658;28;20103;-68
2022/02/17 02:48:08;;;;;;;0.40;0.20;;;11.20;99.90;;;;;;5096449;28;20418;-68
2022/02/17 02:50:35;;;;;;;0.17;0.17;;;11.20;99.90;;;;;;5110739;28;20035;-68
2022/02/17 02:53:01;;;;;;;0.45;0.22;;;11.20;99.90;;;;;;5111047;28;20057;-68
2022/02/17 02:55:27;;;;;;;0.20;0.20;;;11.20;99.90;;;;;;5105858;28;20456;-68
2022/02/17 02:57:52;;;;;;;0.20;0.20;;;11.20;99.90;;;;;;5099568;28;20028;-68
2022/02/17 03:00:18;;;;;;;0.20;0.20;;;11.20;99.90;;;;;;5103136;28;20027;-68
2022/02/17 03:02:44;;;;;;;0.20;0.20;;;11.20;99.90;;;;;;5111752;28;20127;-68
2022/02/17 03:05:11;;;;;;;0.20;0.20;;;11.20;99.90;;;;;;5092502;28;20027;-67
2022/02/17 03:07:37;;;;;;;0.75;0.20;;;11.20;99.90;;;;;;5091345;28;20462;-67
2022/02/17 03:10:04;;;;;;;0.10;0.10;;;11.20;99.90;;;;;;5110046;28;20024;-67
2022/02/17 03:12:29;;;;;;;0.45;0.20;;;11.20;99.90;;;;;;5111375;28;20054;-68
2022/02/17 03:14:55;;;;;;;0.20;0.20;;;11.30;99.90;;;;;;5111240;28;20070;-68
2022/02/17 03:17:20;;;;;;;0.30;0.30;;;11.20;99.90;;;;;;5099506;28;20329;-68
2022/02/17 03:19:46;;;;;;;0.90;0.20;;;11.30;99.90;;;;;;5110444;28;20027;-68
2022/02/17 03:22:12;;;;;;;0.25;0.25;;;11.30;99.90;;;;;;5092462;28;20121;-68
2022/02/17 03:24:37;;;;;;;0.20;0.20;;;11.30;99.90;;;;;;5101543;28;20081;-68
2022/02/17 03:27:03;;;;;;;0.10;0.10;;;11.30;99.90;;;;;;5126413;27;20043;-68
2022/02/17 03:29:29;;;;;;;0.20;0.20;;;11.30;99.90;;;;;;5109273;28;20023;-68
2022/02/17 03:31:54;;;;;;;0.93;0.20;;;11.30;99.90;;;;;;5092972;28;20496;-68
2022/02/17 03:34:21;;;;;;;0.22;0.20;;;11.30;99.90;;;;;;5073447;28;20483;-68
2022/02/17 03:36:46;;;;;;;0.22;0.22;;;11.30;99.90;;;;;;5108723;28;20023;-68
2022/02/17 03:39:14;;;;;;;0.20;0.20;;;11.30;99.90;;;;;;5109827;28;20051;-68
2022/02/17 03:41:40;;;;;;;0.20;0.20;;;11.30;99.90;;;;;;5109325;28;20039;-68
2022/02/17 03:44:06;;;;;;;0.20;0.20;;;11.30;99.90;;;;;;5092962;28;20023;-68
2022/02/17 03:46:32;;;;;;;0.20;0.20;;;11.30;99.90;;;;;;5086245;28;20024;-68
2022/02/17 03:48:57;;;;;;;0.20;0.20;;;11.30;99.90;;;;;;5089185;28;20024;-68
2022/02/17 03:51:23;;;;;;;0.20;0.20;;;11.30;99.90;;;;;;5090610;28;20028;-68
2022/02/17 03:53:48;;;;;;;0.20;0.20;;;11.30;99.90;;;;;;5087031;28;20416;-68
2022/02/17 03:56:14;;;;;;;0.20;0.20;;;11.20;99.90;;;;;;5108788;28;20023;-68
2022/02/17 04:01:23;;;;;;;0.20;0.20;;;11.20;99.90;;;;;;5099384;28;20034;-68
2022/02/17 04:03:49;;;;;;;0.20;0.20;;;11.20;99.90;;;;;;5089192;28;20110;-68
2022/02/17 04:06:15;;;;;;;0.10;0.10;;;11.10;99.90;;;;;;5109381;28;20026;-68
2022/02/17 04:08:40;;;;;;;0.40;0.40;;;11.10;99.90;;;;;;5108301;28;20039;-68
2022/02/17 04:11:06;;;;;;;2.72;0.30;;;11.10;99.90;;;;;;5105795;28;20398;-68
2022/02/17 04:13:31;;;;;;;0.20;0.20;;;11.10;99.90;;;;;;5083077;28;20076;-68
2022/02/17 04:15:57;;;;;;;0.20;0.20;;;11.10;99.90;;;;;;5105635;27;20114;-68
2022/02/17 04:18:22;;;;;;;0.30;0.20;;;11.10;99.90;;;;;;5102856;28;20720;-68
2022/02/17 04:20:48;;;;;;;0.30;0.30;;;11.10;99.90;;;;;;5109481;28;20031;-68
2022/02/17 04:23:14;;;;;;;0.20;0.20;;;11.20;99.90;;;;;;5108868;28;20074;-68
2022/02/17 04:25:39;;;;;;;0.10;0.10;;;11.20;99.90;;;;;;5102521;28;20040;-68
2022/02/17 04:28:05;;;;;;;0.17;0.17;;;11.20;99.90;;;;;;5086677;28;20042;-68
2022/02/17 04:30:31;;;;;;;0.20;0.20;;;11.30;99.90;;;;;;5109912;28;20499;-67
2022/02/17 04:33:00;;;;;;;0.20;0.20;;;11.30;99.90;;;;;;5107368;28;20114;-67
2022/02/17 04:35:26;;;;;;;0.10;0.10;;;11.40;99.90;;;;;;5110216;28;20045;-67
2022/02/17 04:37:51;;;;;;;0.20;0.20;;;11.40;99.90;;;;;;5108129;28;20102;-68
2022/02/17 04:40:17;;;;;;;0.20;0.20;;;11.40;99.90;;;;;;5109775;28;20023;-67
2022/02/17 04:42:42;;;;;;;0.20;0.20;;;11.40;99.90;;;;;;5109585;28;20417;-68
2022/02/17 04:45:09;;;;;;;0.30;0.30;;;11.40;99.90;;;;;;5086033;28;20077;-67
2022/02/17 04:47:34;;;;;;;0.32;0.20;;;11.40;99.90;;;;;;5105356;28;20031;-67
2022/02/17 04:50:00;;;;;;;0.30;0.30;;;11.50;99.90;;;;;;5109456;28;20411;-68
2022/02/17 04:52:25;;;;;;;0.30;0.30;;;11.50;99.90;;;;;;5109309;28;20034;-68
2022/02/17 04:54:52;;;;;;;0.30;0.30;;;11.60;99.90;;;;;;5109267;28;20169;-68
2022/02/17 04:57:18;;;;;;;0.50;0.50;;;11.60;99.90;;;;;;5089493;28;20024;-68
2022/02/17 04:59:44;;;;;;;0.30;0.30;;;11.50;99.90;;;;;;5108638;28;20030;-68
2022/02/17 05:02:10;;;;;;;0.30;0.30;;;11.50;99.90;;;;;;5108831;28;20032;-68
2022/02/17 05:04:36;;;;;;;0.40;0.40;;;11.40;99.90;;;;;;5090833;28;20083;-68
2022/02/17 05:07:02;;;;;;;0.30;0.30;;;11.30;99.90;;;;;;5108140;28;20582;-68
2022/02/17 05:09:28;;;;;;;1.08;0.40;;;11.30;99.90;;;;;;5109231;28;20036;-68
2022/02/17 05:11:53;;;;;;;0.68;0.28;;;11.20;99.90;;;;;;5107422;28;20024;-67
2022/02/17 05:14:19;;;;;;;2.00;0.30;;;11.20;99.90;;;;;;5112432;28;20039;-68
2022/02/17 05:16:45;;;;;;;0.63;0.20;;;11.20;99.90;;;;;;5097125;28;20019;-68
2022/02/17 05:19:10;;;;;;;0.20;0.20;;;11.20;99.90;;;;;;5099323;28;20020;-67
2022/02/17 05:21:36;;;;;;;0.30;0.30;;;11.20;99.90;;;;;;5112511;28;20540;-68
2022/02/17 05:24:02;;;;;;;0.30;0.30;;;11.10;99.90;;;;;;5121091;22;20014;-68
2022/02/17 05:26:27;;;;;;;1.05;0.22;;;11.10;99.90;;;;;;5098661;28;20116;-68
2022/02/17 05:28:53;;;;;;;2.00;0.70;;;11.00;99.90;;;;;;5107106;28;20070;-68
2022/02/17 05:31:19;;;;;;;3.60;0.80;;;11.00;99.90;;;;;;5109753;28;20459;-68
2022/02/17 05:33:44;;;;;;;1.92;0.70;;;10.90;99.90;;;;;;5112912;28;20040;-68
2022/02/17 05:36:10;;;;;;;4.95;0.77;;;10.80;99.90;;;;;;5110318;28;20126;-68
2022/02/17 05:38:36;;;;;;;2.45;0.80;;;10.70;99.90;;;;;;5092179;28;20103;-68
2022/02/17 05:41:01;;;;;;;1.88;0.63;;;10.60;99.90;;;;;;5104569;28;20020;-68
2022/02/17 05:43:27;;;;;;;4.72;0.88;;;10.60;99.90;;;;;;5106508;28;20019;-67
2022/02/17 05:45:53;;;;;;;3.95;0.98;;;10.60;99.90;;;;;;5111774;28;20039;-67
2022/02/17 05:48:19;;;;;;;2.03;0.77;;;10.60;99.90;;;;;;5111367;28;20031;-68
2022/02/17 05:50:45;;;;;;;3.15;0.90;;;10.50;99.90;;;;;;5110768;28;20160;-68
2022/02/17 05:53:10;;;;;;;4.75;0.85;;;10.50;99.90;;;;;;5098780;28;20498;-69
2022/02/17 05:55:36;;;;;;;5.35;1.10;;;10.50;99.90;;;;;;5104326;28;20111;-68
2022/02/17 05:58:02;;;;;;;2.67;0.73;;;10.50;99.90;;;;;;5109779;28;20140;-68
2022/02/17 06:00:27;;;;;;;6.28;1.08;;;10.50;99.90;;;;;;5112381;28;20023;-68
2022/02/17 06:02:53;;;;;;;4.50;0.82;;;10.40;99.90;;;;;;5092713;28;20389;-68
2022/02/17 06:05:19;;;;;;;4.80;1.17;;;10.40;99.90;;;;;;5106923;28;20068;-68
2022/02/17 06:07:45;;;;;;;5.25;0.90;;;10.40;99.90;;;;;;5110851;28;20118;-68
2022/02/17 06:10:11;;;;;;;4.75;0.98;;;10.30;99.90;;;;;;5096609;28;20241;-68
2022/02/17 06:12:44;;;;;;;3.40;1.48;;;10.30;99.90;;;;;;5110769;28;20493;-68
2022/02/17 06:15:11;;;;;;;4.57;0.95;;;10.30;99.90;;;;;;5113152;28;20402;-68
2022/02/17 06:17:37;;;;;;;5.35;1.30;;;10.30;99.90;;;;;;5112833;28;20084;-68
2022/02/17 06:20:05;;;;;;;7.03;1.40;;;10.20;99.90;;;;;;5097158;28;20596;-69
2022/02/17 06:22:30;;;;;;;6.22;1.60;;;10.20;99.90;;;;;;5108777;28;20023;-68
2022/02/17 06:24:56;;;;;;;2.55;1.10;;;10.20;99.90;;;;;;5100705;27;20169;-68
2022/02/17 06:27:21;;;;;;;7.97;1.30;;;10.20;99.90;;;;;;5101830;28;20547;-69
2022/02/17 06:29:47;;;;;;;9.60;1.48;;;10.10;99.90;;;;;;5111595;28;20495;-69
2022/02/17 06:32:13;;;;;;;6.18;1.17;;;10.10;99.90;;;;;;5108891;28;20027;-69
2022/02/17 06:34:38;;;;;;;8.13;1.48;;;10.10;99.90;;;;;;5100027;28;20050;-69
2022/02/17 06:37:04;;;;;;;6.43;1.73;;;10.10;99.90;;;;;;5098575;28;20152;-69
2022/02/17 06:39:30;;;;;;;6.53;1.40;;;10.10;99.90;;;;;;5104983;28;20031;-69
2022/02/17 06:41:55;;;;;;;6.75;1.45;;;10.10;99.90;;;;;;5104803;28;20027;-69
2022/02/17 06:44:21;;;;;;;4.72;1.30;;;10.00;99.90;;;;;;5106708;28;20437;-68
2022/02/17 06:46:46;;;;;;;6.65;1.63;;;10.00;99.90;;;;;;5102936;28;20069;-68
2022/02/17 06:49:12;;;;;;;5.38;1.23;;;10.00;99.90;;;;;;5103350;28;20032;-69
2022/02/17 06:51:38;;;;;;;4.63;1.23;;;10.00;99.90;;;;;;5109741;28;20032;-68
2022/02/17 06:54:03;;;;;;;11.07;1.60;;;10.00;99.90;;;;;;5108301;28;20483;-69
2022/02/17 06:56:29;;;;;;;8.88;1.42;;;10.00;99.90;;;;;;5106636;28;20058;-69
2022/02/17 06:58:54;;;;;;;8.13;1.90;;;10.10;99.90;;;;;;5102697;28;20489;-69
2022/02/17 07:01:23;;;;;;;7.47;1.60;;;10.20;99.90;;;;;;5105406;28;20080;-69
2022/02/17 07:03:49;;;;;;;7.88;1.75;;;10.30;99.90;;;;;;5112344;28;20015;-69
2022/02/17 07:06:14;;;;;;;10.27;1.80;;;10.40;99.90;;;;;;5110495;28;20032;-69
2022/02/17 07:08:40;;;;;;;7.43;1.20;;;10.50;99.90;;;;;;5092488;28;20036;-69
2022/02/17 07:11:05;;;;;;;8.68;1.48;;;10.90;99.90;;;;;;5107892;28;20072;-69
2022/02/17 07:13:31;;;;;;;7.47;1.45;;;10.90;99.90;;;;;;5110845;28;20063;-69
2022/02/17 07:15:58;;;;;;;6.70;1.50;;;11.00;99.90;;;;;;5097021;28;20027;-69
2022/02/17 07:18:25;;;;;;;7.68;1.92;;;11.10;99.90;;;;;;5090270;28;20180;-68
2022/02/17 07:20:53;;;;;;;11.90;1.50;;;11.10;99.90;;;;;;5101427;27;20024;-69
2022/02/17 07:23:20;;;;;;;10.23;1.38;;;11.10;99.90;;;;;;5099216;28;20022;-69
2022/02/17 07:25:46;;;;;;;8.77;1.65;;;11.20;99.90;;;;;;5082236;28;20039;-69
2022/02/17 07:28:13;;;;;;;6.18;1.75;;;11.60;99.90;;;;;;5099357;28;20077;-69
2022/02/17 07:30:39;;;;;;;9.65;2.00;;;11.90;99.90;;;;;;5104725;28;20032;-69
2022/02/17 07:33:07;;;;;;;14.88;2.38;;;12.20;99.90;;;;;;5095272;28;20027;-69
2022/02/17 07:35:33;;;;;;;9.43;1.88;;;12.40;99.90;;;;;;5104386;28;20027;-69
2022/02/17 07:37:59;;;;;;;8.45;1.80;;;12.50;99.90;;;;;;5103087;28;20111;-69
2022/02/17 07:40:25;;;;;;;8.15;2.00;;;12.60;99.90;;;;;;5106774;28;20052;-68
2022/02/17 07:42:51;;;;;;;9.45;1.77;;;12.80;99.90;;;;;;5100075;28;20463;-68
2022/02/17 07:45:16;;;;;;;9.88;1.73;;;12.90;99.90;;;;;;5099261;28;20463;-68
2022/02/17 07:47:46;;;;;;;11.40;1.95;;;13.10;99.90;;;;;;5080372;28;20042;-69
2022/02/17 07:50:13;;;;;;;6.93;1.45;;;12.50;99.90;;;;;;5095653;28;20081;-68
2022/02/17 07:52:38;;;;;;;10.80;1.85;;;12.00;99.90;;;;;;5105518;28;20540;-68
2022/02/17 07:55:05;;;;;;;10.98;2.00;;;11.60;99.90;;;;;;5109546;28;20043;-68
2022/02/17 07:57:30;;;;;;;9.00;2.05;;;11.40;99.90;;;;;;5106906;28;20528;-69
2022/02/17 07:59:56;;;;;;;11.73;1.65;;;11.70;99.90;;;;;;5111395;28;20142;-68
2022/02/17 08:02:22;;;;;;;17.95;1.75;;;11.60;99.90;;;;;;5092725;28;20020;-68
2022/02/17 08:04:48;;;;;;;10.07;2.00;;;11.50;99.90;;;;;;5099682;28;20039;-68
2022/02/17 08:07:13;;;;;;;11.63;2.13;;;11.30;99.90;;;;;;5108737;28;20031;-69
2022/02/17 08:09:39;;;;;;;6.97;1.90;;;11.10;99.90;;;;;;5110785;28;20095;-69
2022/02/17 08:12:05;;;;;;;8.80;1.77;;;11.00;99.90;;;;;;5110099;28;20031;-69
2022/02/17 08:14:30;;;;;;;9.55;1.88;;;10.90;99.90;;;;;;5110472;28;20028;-68
2022/02/17 08:16:56;;;;;;;7.40;1.50;;;11.20;99.90;;;;;;5096923;28;20023;-69
2022/02/17 08:19:22;;;;;;;4.88;1.50;;;11.20;99.90;;;;;;5089048;28;20464;-68
2022/02/17 08:21:47;;;;;;;8.60;1.40;;;11.40;99.90;;;;;;5102128;28;20032;-69
2022/02/17 08:24:13;;;;;;;8.65;1.70;;;11.40;99.90;;;;;;5100994;28;20775;-68
2022/02/17 08:26:40;;;;;;;8.93;1.33;;;11.30;99.90;;;;;;5098903;28;20498;-68
2022/02/17 08:29:06;;;;;;;9.18;1.65;;;11.20;99.90;;;;;;5089655;28;20056;-68
2022/02/17 08:31:33;;;;;;;6.28;1.30;;;11.10;99.90;;;;;;5102740;28;20050;-68
2022/02/17 08:34:03;;;;;;;9.07;1.70;;;11.00;99.90;;;;;;5108135;28;20016;-69
2022/02/17 08:36:35;;;;;;;8.57;1.42;;;11.20;99.90;;;;;;5101816;28;20030;-68
2022/02/17 08:39:02;;;;;;;8.10;1.38;;;11.30;99.90;;;;;;5109193;28;20030;-68
2022/02/17 08:41:28;;;;;;;7.53;1.73;;;11.50;99.90;;;;;;5106713;28;20054;-69
2022/02/17 08:43:53;;;;;;;6.40;1.52;;;11.60;99.90;;;;;;5103155;28;20060;-68
2022/02/17 08:46:20;;;;;;;6.57;1.42;;;11.80;99.90;;;;;;5099882;28;20026;-68
2022/02/17 08:48:46;;;;;;;8.25;1.48;;;11.90;99.90;;;;;;5108207;28;20020;-68
2022/02/17 08:51:13;;;;;;;10.68;2.05;;;11.90;99.90;;;;;;5109808;28;20032;-68
2022/02/17 08:53:39;;;;;;;11.32;2.13;;;11.80;99.90;;;;;;5114867;28;20103;-68
2022/02/17 08:56:05;;;;;;;8.65;1.80;;;11.60;99.90;;;;;;5113554;28;20115;-68
2022/02/17 08:58:31;;;;;;;8.27;1.75;;;11.40;99.90;;;;;;5095518;28;20529;-68
2022/02/17 09:00:58;;;;;;;5.70;1.67;;;11.20;99.90;;;;;;5110805;28;20031;-68
2022/02/17 09:03:24;;;;;;;6.90;1.83;;;11.10;99.90;;;;;;5112514;28;20411;-68
2022/02/17 09:05:49;;;;;;;10.82;1.88;;;10.90;99.90;;;;;;5114276;28;20027;-69
2022/02/17 09:08:15;;;;;;;12.45;1.98;;;10.80;99.90;;;;;;5102422;28;20024;-69
2022/02/17 09:10:41;;;;;;;11.82;1.83;;;10.60;99.90;;;;;;5103298;28;20118;-69
2022/02/17 09:13:06;;;;;;;11.85;2.25;;;10.60;99.90;;;;;;5107431;28;20513;-69
2022/02/17 09:15:32;;;;;;;14.35;2.25;;;10.50;99.90;;;;;;5101090;27;20035;-69
2022/02/17 09:17:58;;;;;;;11.27;1.98;;;10.40;99.90;;;;;;5101424;28;20190;-69
2022/02/17 09:20:24;;;;;;;11.85;2.17;;;10.50;99.90;;;;;;5092964;28;20616;-69
2022/02/17 09:22:49;;;;;;;15.02;2.30;;;10.50;99.90;;;;;;5110049;28;20328;-68
2022/02/17 09:25:15;;;;;;;15.50;2.40;;;10.40;99.90;;;;;;5097104;28;20106;-68
2022/02/17 09:27:41;;;;;;;13.88;2.47;;;10.40;99.90;;;;;;5094530;28;20040;-68
2022/02/17 09:30:08;;;;;;;10.55;2.30;;;10.40;99.90;;;;;;5112941;28;20076;-69
2022/02/17 09:32:33;;;;;;;10.55;2.50;;;10.40;99.90;;;;;;5106425;28;20028;-68
2022/02/17 09:34:59;;;;;;;14.88;2.70;;;10.50;99.90;;;;;;5093444;28;20429;-69
2022/02/17 09:37:25;;;;;;;9.98;2.45;;;10.50;99.90;;;;;;5091320;28;20063;-68
2022/02/17 09:39:51;;;;;;;11.05;2.08;;;10.40;99.90;;;;;;5093885;28;20027;-69
2022/02/17 09:42:17;;;;;;;15.30;2.38;;;10.50;99.90;;;;;;5093184;28;20368;-69
2022/02/17 09:44:43;;;;;;;13.75;2.75;;;10.50;99.90;;;;;;5093595;28;20053;-68
2022/02/17 09:47:11;;;;;;;16.52;2.38;;;10.60;99.90;;;;;;5101947;28;20031;-69
2022/02/17 09:49:38;;;;;;;17.27;2.22;;;10.70;99.90;;;;;;5103527;28;20016;-69
2022/02/17 09:52:04;;;;;;;9.70;2.42;;;10.80;99.90;;;;;;5106308;28;20043;-68
2022/02/17 09:54:30;;;;;;;12.48;2.38;;;11.00;99.90;;;;;;5098329;28;20028;-68
2022/02/17 09:56:56;;;;;;;12.98;2.15;;;11.10;99.90;;;;;;5112436;28;20024;-69
2022/02/17 09:59:23;;;;;;;15.75;2.28;;;11.20;99.90;;;;;;5109021;28;20145;-68
2022/02/17 10:02:04;;;;;;;14.20;2.22;;;11.10;99.90;;;;;;5096947;28;20023;-68
2022/02/17 10:04:31;;;;;;;14.10;2.72;;;11.00;99.90;;;;;;5107242;28;20024;-68
2022/02/17 10:07:01;;;;;;;11.52;2.33;;;10.90;99.90;;;;;;5091838;28;20032;-69
2022/02/17 10:09:41;;;;;;;16.05;3.00;;;10.80;99.90;;;;;;5098549;28;20040;-68
2022/02/17 10:12:10;;;;;;;14.63;3.08;;;10.70;99.90;;;;;;5103891;28;20110;-68
2022/02/17 10:14:36;;;;;;;14.98;2.85;;;10.50;99.90;;;;;;5111097;28;20035;-69
2022/02/17 10:17:14;;;;;;;9.88;2.50;;;10.40;99.90;;;;;;5102858;28;20024;-69
2022/02/17 10:19:47;;;;;;;15.35;2.90;;;10.40;99.90;;;;;;5107330;28;20487;-69
2022/02/17 10:22:16;;;;;;;13.73;2.90;;;10.50;99.90;;;;;;5123898;27;20034;-68
2022/02/17 10:24:50;;;;;;;14.05;2.50;;;10.60;99.90;;;;;;5107163;27;20400;-69
2022/02/17 10:27:24;;;;;;;16.20;2.97;;;10.70;99.90;;;;;;5106686;28;20081;-69
2022/02/17 10:30:00;;;;;;;11.52;2.42;;;10.80;99.90;;;;;;5111303;28;20074;-68
2022/02/17 10:32:26;;;;;;;14.02;2.95;;;10.80;99.90;;;;;;5105382;28;20027;-68
2022/02/17 10:35:14;;;;;;;15.35;2.53;;;10.90;99.90;;;;;;5112295;28;20096;-68
2022/02/17 10:37:51;;;;;;;7.95;2.10;;;10.90;99.90;;;;;;5111357;28;20032;-69
2022/02/17 10:40:25;;;;;;;8.77;2.28;;;11.00;99.90;;;;;;5110371;28;20667;-68
2022/02/17 10:43:05;;;;;;;13.50;3.05;;;11.00;99.90;;;;;;5095825;28;20106;-69
2022/02/17 10:45:30;;;;;;;18.50;3.00;;;11.00;99.90;;;;;;5111422;28;20032;-68
2022/02/17 10:48:22;;;;;;;14.27;2.67;;;11.00;99.90;;;;;;5092736;28;20034;-69
2022/02/17 10:51:04;;;;;;;11.33;2.70;;;11.00;99.90;;;;;;5112247;28;20445;-69
2022/02/17 10:53:30;;;;;;;13.65;2.95;;;11.00;99.90;;;;;;5106298;28;20020;-69
2022/02/17 10:56:00;;;;;;;15.65;2.75;;;11.00;99.90;;;;;;5109609;28;20085;-69
2022/02/17 10:58:29;;;;;;;14.85;2.85;;;11.10;99.90;;;;;;5090872;28;20443;-69
2022/02/17 11:01:00;;;;;;;12.13;2.38;;;11.10;99.90;;;;;;5110667;28;20394;-69
2022/02/17 11:03:29;;;;;;;15.68;2.70;;;11.20;99.90;;;;;;5112152;28;20103;-69
2022/02/17 11:05:55;;;;;;;11.15;2.65;;;11.20;99.90;;;;;;5112028;28;20024;-69
2022/02/17 11:08:21;;;;;;;13.35;2.83;;;11.20;99.90;;;;;;5108252;28;20035;-69
2022/02/17 11:10:47;;;;;;;17.08;2.60;;;11.30;99.90;;;;;;5091449;28;20054;-69
2022/02/17 11:13:20;;;;;;;15.43;2.33;;;11.40;99.90;;;;;;5095929;28;20471;-69
2022/02/17 11:15:47;;;;;;;15.20;3.00;;;11.40;99.90;;;;;;5111681;28;20084;-69
2022/02/17 11:18:16;;;;;;;13.73;2.65;;;11.40;99.90;;;;;;5110818;28;20595;-69
2022/02/17 11:20:43;;;;;;;14.60;2.40;;;11.40;99.90;;;;;;5102057;28;20028;-68
2022/02/17 11:23:09;;;;;;;11.82;2.30;;;11.40;99.90;;;;;;5115133;27;20024;-69
2022/02/17 11:25:41;;;;;;;9.45;2.35;;;11.30;99.90;;;;;;5169324;22;20936;-69
2022/02/17 11:28:11;;;;;;;12.63;2.38;;;11.20;99.90;;;;;;5111736;27;20030;-70
2022/02/17 11:30:56;;;;;;;6.78;2.05;;;11.00;99.90;;;;;;5066686;28;20102;-70
2022/02/17 11:33:23;;;;;;;15.18;2.85;;;10.80;99.90;;;;;;5050285;28;20060;-68
2022/02/17 11:35:50;;;;;;;16.50;3.05;;;10.50;99.90;;;;;;5046690;28;20539;-69
2022/02/17 11:38:31;;;;;;;16.83;3.25;;;10.40;99.90;;;;;;5045647;28;20037;-69
2022/02/17 11:41:16;;;;;;;15.50;2.60;;;10.20;99.90;;;;;;5046820;28;20033;-69
2022/02/17 11:43:51;;;;;;;16.23;2.67;;;10.10;99.90;;;;;;5045253;28;20600;-69
2022/02/17 11:46:43;;;;;;;14.00;2.42;;;10.10;99.90;;;;;;5045830;28;20055;-68
2022/02/17 11:49:28;;;;;;;17.55;2.97;;;10.10;99.90;;;;;;5043078;28;20029;-69
2022/02/17 11:52:10;;;;;;;12.07;2.47;;;10.10;99.90;;;;;;5047266;28;20025;-70
2022/02/17 11:54:38;;;;;;;15.43;3.23;;;10.10;99.90;;;;;;5024253;28;20038;-69
2022/02/17 11:57:04;;;;;;;18.50;2.45;;;10.10;99.90;;;;;;5039950;28;20022;-68
2022/02/17 11:59:35;;;;;;;10.68;2.08;;;10.10;99.90;;;;;;5042532;28;20052;-70
2022/02/17 12:02:03;;;;;;;19.38;4.55;;;10.00;99.90;;;;;;5043924;28;20116;-68
2022/02/17 12:04:32;;;;;;;13.50;2.92;;;10.00;99.90;;;;;;5041636;28;20489;-68
2022/02/17 12:07:17;;;;;;;14.02;2.85;;;9.80;99.90;;;;;;5045601;28;20120;-69
2022/02/17 12:09:47;;;;;;;15.90;2.22;;;9.70;99.90;;;;;;5040301;28;20025;-69
2022/02/17 12:12:15;;;;;;;13.38;4.03;;;9.70;99.90;;;;;;5045069;28;20485;-69
2022/02/17 12:14:51;;;;;;;16.20;2.95;;;9.60;99.90;;;;;;5056777;28;20121;-69
2022/02/17 12:17:28;;;;;;;13.57;2.55;;;9.70;99.90;;;;;;5045535;28;20112;-70
2022/02/17 12:20:11;;;;;;;12.38;2.40;;;9.90;99.90;;;;;;5041785;28;20482;-70
2022/02/17 12:22:45;;;;;;;14.70;2.83;;;10.20;99.90;;;;;;5026713;28;20034;-71
2022/02/17 12:25:16;;;;;;;15.20;2.75;;;10.40;99.90;;;;;;5028977;28;20100;-69
2022/02/17 12:27:50;;;;;;;20.40;2.97;;;10.70;99.90;;;;;;5041098;28;20022;-69
2022/02/17 12:30:25;;;;;;;14.35;2.95;;;11.00;99.90;;;;;;5063662;28;20107;-69
2022/02/17 12:33:15;;;;;;;14.60;2.60;;;11.30;99.90;;;;;;5028474;28;20017;-69
2022/02/17 12:35:51;;;;;;;8.38;2.08;;;11.50;99.90;;;;;;5042207;28;20026;-69
2022/02/17 12:38:21;;;;;;;9.98;2.15;;;11.50;99.90;;;;;;5025315;28;20437;-70
2022/02/17 12:40:48;;;;;;;13.55;2.60;;;11.60;99.90;;;;;;5024706;28;20028;-70
2022/02/17 12:43:35;;;;;;;13.30;2.67;;;11.80;99.90;;;;;;5019214;28;20021;-70
2022/02/17 12:46:03;;;;;;;16.30;2.63;;;11.90;99.90;;;;;;5032772;28;20028;-69